createdAt,value
2023-02-17T00:01:29.512Z,62.52
2023-02-17T00:03:59.910Z,63.43
2023-02-17T00:06:31.808Z,63.22
2023-02-17T00:09:02.001Z,64.42
2023-02-17T00:11:30.727Z,65.45
2023-02-17T00:14:00.553Z,65.76
2023-02-17T00:16:33.084Z,66.19
2023-02-17T00:19:24.993Z,65.94
2023-02-17T00:21:55.355Z,65.56
2023-02-17T00:24:23.600Z,66.07
2023-02-17T00:26:51.955Z,66.02
2023-02-17T00:29:20.478Z,65.47
2023-02-17T00:31:49.114Z,65.49
2023-02-17T00:34:19.874Z,65.50
2023-02-17T00:36:48.529Z,65.06
2023-02-17T00:39:18.394Z,65.57
2023-02-17T00:41:46.881Z,66.24
2023-02-17T00:44:19.354Z,67.41
2023-02-17T00:46:48.559Z,66.40
2023-02-17T00:49:18.628Z,66.26
2023-02-17T00:51:49.022Z,66.62
2023-02-17T00:54:18.485Z,67.47
2023-02-17T00:56:47.560Z,67.08
2023-02-17T00:59:15.921Z,67.05
2023-02-17T01:01:44.318Z,70.62
2023-02-17T01:04:13.109Z,70.00
2023-02-17T01:06:42.357Z,68.51
2023-02-17T01:09:15.224Z,68.28
2023-02-17T01:11:44.103Z,68.20
2023-02-17T01:14:14.719Z,68.70
2023-02-17T01:16:47.013Z,67.80
2023-02-17T01:19:18.065Z,67.93
2023-02-17T01:21:46.840Z,67.39
2023-02-17T01:24:16.578Z,67.43
2023-02-17T01:26:44.841Z,67.29
2023-02-17T01:29:13.107Z,67.85
2023-02-17T01:31:41.851Z,68.25
2023-02-17T01:34:11.891Z,69.14
2023-02-17T01:36:40.298Z,70.05
2023-02-17T01:39:08.702Z,71.39
2023-02-17T01:41:38.281Z,72.71
2023-02-17T01:44:09.312Z,71.47
2023-02-17T01:46:38.836Z,72.12
2023-02-17T01:49:18.930Z,71.02
2023-02-17T01:51:50.474Z,71.29
2023-02-17T01:54:24.092Z,70.70
2023-02-17T01:56:55.556Z,71.03
2023-02-17T01:59:24.131Z,71.29
2023-02-17T02:01:58.400Z,70.07
2023-02-17T02:04:31.609Z,70.51
2023-02-17T02:07:00.406Z,72.38
2023-02-17T02:09:34.602Z,73.14
2023-02-17T02:12:07.205Z,72.69
2023-02-17T02:14:35.542Z,71.94
2023-02-17T02:17:10.448Z,71.51
2023-02-17T02:20:04.521Z,71.17
2023-02-17T02:22:56.789Z,71.19
2023-02-17T02:25:46.019Z,71.24
2023-02-17T02:28:25.835Z,71.18
2023-02-17T02:31:22.575Z,71.51
2023-02-17T02:33:57.955Z,72.73
2023-02-17T02:36:30.913Z,72.75
2023-02-17T02:39:02.965Z,72.72
2023-02-17T02:41:35.766Z,72.21
2023-02-17T02:44:09.252Z,72.10
2023-02-17T02:46:38.046Z,71.87
2023-02-17T02:49:09.096Z,72.48
2023-02-17T02:51:51.272Z,72.33
2023-02-17T02:54:28.312Z,71.37
2023-02-17T02:57:06.317Z,70.98
2023-02-17T02:59:45.831Z,71.97
2023-02-17T03:02:22.502Z,72.25
2023-02-17T03:05:00.702Z,72.72
2023-02-17T03:07:33.473Z,71.96
2023-02-17T03:10:02.433Z,71.29
2023-02-17T03:12:31.385Z,71.66
2023-02-17T03:15:05.949Z,71.89
2023-02-17T03:17:34.728Z,71.54
2023-02-17T03:20:06.680Z,71.93
2023-02-17T03:22:37.914Z,72.54
2023-02-17T03:25:06.918Z,73.99
2023-02-17T03:27:35.247Z,75.40
2023-02-17T03:30:04.043Z,77.29
2023-02-17T03:32:32.427Z,79.87
2023-02-17T03:35:00.798Z,81.75
2023-02-17T03:37:30.438Z,80.46
2023-02-17T03:39:58.758Z,76.54
2023-02-17T03:42:28.120Z,75.69
2023-02-17T03:44:56.384Z,78.49
2023-02-17T03:47:24.698Z,78.94
2023-02-17T03:49:53.045Z,78.11
2023-02-17T03:52:21.524Z,78.58
2023-02-17T03:54:52.782Z,81.66
2023-02-17T03:57:21.055Z,82.55
2023-02-17T03:59:49.336Z,84.13
2023-02-17T04:02:17.618Z,84.43
2023-02-17T04:04:45.953Z,85.49
2023-02-17T04:07:14.380Z,83.96
2023-02-17T04:09:42.747Z,83.29
2023-02-17T04:12:12.440Z,83.96
2023-02-17T04:14:40.735Z,81.11
2023-02-17T04:17:09.022Z,80.52
2023-02-17T04:19:37.383Z,81.17
2023-02-17T04:22:09.047Z,80.27
2023-02-17T04:24:37.667Z,82.30
2023-02-17T04:27:06.438Z,80.24
2023-02-17T04:29:36.441Z,78.09
2023-02-17T04:32:08.033Z,77.98
2023-02-17T04:34:36.449Z,79.08
2023-02-17T04:37:04.918Z,81.27
2023-02-17T04:39:33.186Z,84.04
2023-02-17T04:42:01.547Z,81.25
2023-02-17T04:44:29.806Z,79.44
2023-02-17T04:46:59.461Z,78.22
2023-02-17T04:49:27.746Z,79.67
2023-02-17T04:51:56.055Z,81.50
2023-02-17T04:54:24.398Z,79.11
2023-02-17T04:56:52.899Z,77.67
2023-02-17T04:59:21.197Z,77.40
2023-02-17T05:01:49.464Z,77.15
2023-02-17T05:04:19.160Z,76.83
2023-02-17T05:06:47.568Z,79.04
2023-02-17T05:09:15.814Z,83.15
2023-02-17T05:11:44.156Z,84.82
2023-02-17T05:14:12.610Z,86.20
2023-02-17T05:16:40.941Z,82.96
2023-02-17T05:19:09.316Z,80.75
2023-02-17T05:21:39.383Z,79.33
2023-02-17T05:24:08.097Z,79.88
2023-02-17T05:26:36.450Z,82.19
2023-02-17T05:29:04.892Z,80.34
2023-02-17T05:31:33.276Z,79.54
2023-02-17T05:34:01.557Z,79.49
2023-02-17T05:36:29.981Z,77.58
2023-02-17T05:38:59.619Z,76.97
2023-02-17T05:41:28.711Z,78.95
2023-02-17T05:43:59.455Z,79.81
2023-02-17T05:46:30.308Z,80.08
2023-02-17T05:49:02.618Z,79.77
2023-02-17T05:51:30.899Z,78.05
2023-02-17T05:54:00.607Z,78.82
2023-02-17T05:56:29.194Z,79.17
2023-02-17T05:58:57.568Z,77.06
2023-02-17T06:01:25.948Z,75.23
2023-02-17T06:03:54.237Z,74.30
2023-02-17T06:06:22.617Z,74.30
2023-02-17T06:08:50.823Z,74.42
2023-02-17T06:11:20.537Z,72.24
2023-02-17T06:13:48.973Z,71.46
2023-02-17T06:16:17.273Z,71.01
2023-02-17T06:18:45.574Z,70.85
2023-02-17T06:21:13.943Z,70.47
2023-02-17T06:23:42.162Z,69.75
2023-02-17T06:26:13.324Z,71.70
2023-02-17T06:28:42.987Z,71.84
2023-02-17T06:31:11.587Z,70.13
2023-02-17T06:33:39.957Z,70.53
2023-02-17T06:36:09.358Z,69.45
2023-02-17T06:38:38.985Z,68.23
2023-02-17T06:41:10.183Z,69.52
2023-02-17T06:43:38.492Z,69.12
2023-02-17T06:46:09.747Z,68.79
2023-02-17T06:48:38.162Z,69.63
2023-02-17T06:51:07.000Z,69.31
2023-02-17T06:53:35.301Z,69.88
2023-02-17T06:56:03.944Z,69.35
2023-02-17T06:58:32.880Z,68.05
2023-02-17T07:01:01.189Z,68.87
2023-02-17T07:03:30.911Z,67.73
2023-02-17T07:05:59.471Z,67.58
2023-02-17T07:08:27.787Z,65.58
2023-02-17T07:10:56.013Z,64.09
2023-02-17T07:13:24.259Z,63.84
2023-02-17T07:15:52.631Z,63.06
2023-02-17T07:18:20.793Z,61.54
2023-02-17T07:20:50.695Z,60.69
2023-02-17T07:23:18.981Z,61.50
2023-02-17T07:25:47.279Z,61.51
2023-02-17T07:28:15.733Z,60.16
2023-02-17T07:30:45.075Z,59.72
2023-02-17T07:33:13.333Z,60.59
2023-02-17T07:35:43.966Z,60.18
2023-02-17T07:38:14.282Z,60.06
2023-02-17T07:40:42.642Z,59.09
2023-02-17T07:43:10.903Z,59.98
2023-02-17T07:45:39.431Z,60.57
2023-02-17T07:48:07.793Z,59.49
2023-02-17T07:50:36.080Z,57.52
2023-02-17T07:53:04.663Z,55.77
2023-02-17T07:55:34.289Z,54.88
2023-02-17T07:58:02.595Z,53.71
2023-02-17T08:00:30.830Z,53.65
2023-02-17T08:02:59.078Z,52.39
2023-02-17T08:05:27.341Z,50.89
2023-02-17T08:08:09.473Z,50.46
2023-02-17T08:10:57.992Z,50.15
2023-02-17T08:13:27.104Z,48.62
2023-02-17T08:15:55.476Z,47.18
2023-02-17T08:18:23.757Z,46.36
2023-02-17T08:20:52.472Z,47.18
2023-02-17T08:23:21.541Z,45.95
2023-02-17T08:25:51.218Z,45.17
2023-02-17T08:28:20.902Z,44.00
2023-02-17T08:30:49.307Z,43.76
2023-02-17T08:33:19.025Z,43.84
2023-02-17T08:35:47.383Z,44.65
2023-02-17T08:38:16.564Z,43.46
2023-02-17T08:40:44.934Z,43.91
2023-02-17T08:43:14.623Z,42.76
2023-02-17T08:45:42.941Z,42.42
2023-02-17T08:48:11.264Z,41.81
2023-02-17T08:50:39.576Z,41.69
2023-02-17T08:53:07.897Z,41.78
2023-02-17T08:55:48.691Z,41.33
2023-02-17T08:58:19.071Z,41.40
2023-02-17T09:00:47.580Z,41.00
2023-02-17T09:03:15.993Z,40.73
2023-02-17T09:05:44.327Z,41.25
2023-02-17T09:08:14.685Z,40.95
2023-02-17T09:10:43.006Z,41.14
2023-02-17T09:13:11.233Z,38.78
2023-02-17T09:15:40.988Z,40.22
2023-02-17T09:18:09.390Z,39.37
2023-02-17T09:20:39.738Z,39.19
2023-02-17T09:23:08.785Z,39.55
2023-02-17T09:25:37.145Z,39.81
2023-02-17T09:28:06.085Z,39.59
2023-02-17T09:30:34.687Z,39.41
2023-02-17T09:33:05.519Z,39.45
2023-02-17T09:35:34.361Z,39.48
2023-02-17T09:38:02.681Z,39.97
2023-02-17T09:40:40.212Z,39.44
2023-02-17T09:43:15.013Z,38.06
2023-02-17T09:45:45.815Z,38.93
2023-02-17T09:48:20.448Z,38.40
2023-02-17T09:50:56.310Z,38.46
2023-02-17T09:53:32.957Z,38.75
2023-02-17T09:56:05.095Z,39.12
2023-02-17T09:58:37.949Z,38.80
2023-02-17T10:01:12.339Z,37.84
2023-02-17T10:03:46.207Z,37.04
2023-02-17T10:06:17.680Z,36.06
2023-02-17T10:08:51.763Z,36.63
2023-02-17T10:11:28.289Z,35.86
2023-02-17T10:14:01.004Z,34.95
2023-02-17T10:16:34.285Z,34.70
2023-02-17T10:19:11.725Z,34.53
2023-02-17T10:21:45.912Z,35.10
2023-02-17T10:24:14.305Z,34.95
2023-02-17T10:26:53.596Z,33.79
2023-02-17T10:29:35.473Z,33.13
2023-02-17T10:32:19.975Z,32.46
2023-02-17T10:35:04.811Z,31.79
2023-02-17T10:37:43.473Z,32.44
2023-02-17T10:40:16.240Z,32.25
2023-02-17T10:42:44.632Z,30.56
2023-02-17T10:45:21.056Z,31.21
2023-02-17T10:47:49.446Z,30.47
2023-02-17T10:50:23.957Z,31.41
2023-02-17T10:52:52.751Z,30.12
2023-02-17T10:55:27.028Z,30.32
2023-02-17T10:58:01.344Z,30.13
2023-02-17T11:00:29.718Z,29.77
2023-02-17T11:02:58.035Z,29.92
2023-02-17T11:05:30.077Z,30.02
2023-02-17T11:08:01.990Z,30.50
2023-02-17T11:10:32.776Z,29.68
2023-02-17T11:13:03.716Z,29.76
2023-02-17T11:15:36.824Z,29.73
2023-02-17T11:18:11.953Z,29.02
2023-02-17T11:20:42.040Z,29.02
2023-02-17T11:23:24.963Z,28.75
2023-02-17T11:26:02.813Z,28.39
2023-02-17T11:28:31.310Z,28.09
2023-02-17T11:31:02.822Z,27.97
2023-02-17T11:33:35.458Z,27.92
2023-02-17T11:36:06.932Z,26.53
2023-02-17T11:38:45.073Z,26.86
2023-02-17T11:41:13.408Z,26.70
2023-02-17T11:43:53.679Z,26.71
2023-02-17T11:46:35.105Z,26.88
2023-02-17T11:49:40.216Z,26.11
2023-02-17T11:52:26.047Z,26.22
2023-02-17T11:55:26.172Z,25.90
2023-02-17T11:58:13.324Z,25.70
2023-02-17T12:00:48.833Z,23.46
2023-02-17T12:03:44.236Z,23.65
2023-02-17T12:06:18.531Z,24.08
2023-02-17T12:09:03.796Z,24.23
2023-02-17T12:11:41.949Z,23.88
2023-02-17T12:14:25.791Z,24.64
2023-02-17T12:17:02.582Z,22.70
2023-02-17T12:19:42.328Z,20.01
2023-02-17T12:22:18.773Z,21.13
2023-02-17T12:24:59.661Z,20.88
2023-02-17T12:27:39.800Z,21.20
2023-02-17T12:30:22.335Z,21.14
2023-02-17T12:33:03.887Z,20.60
2023-02-17T12:35:42.058Z,21.71
2023-02-17T12:38:15.782Z,21.35
2023-02-17T12:40:49.070Z,22.16
2023-02-17T12:43:26.588Z,21.49
2023-02-17T12:45:58.205Z,21.41
2023-02-17T12:48:34.384Z,20.81
2023-02-17T12:51:10.069Z,20.60
2023-02-17T12:53:46.997Z,18.70
2023-02-17T12:56:48.833Z,21.11
2023-02-17T12:59:19.654Z,20.44
2023-02-17T13:01:55.592Z,20.33
2023-02-17T13:04:26.670Z,21.01
2023-02-17T13:07:02.245Z,21.53
2023-02-17T13:09:35.680Z,20.42
2023-02-17T13:12:33.158Z,21.06
2023-02-17T13:15:03.018Z,21.62
2023-02-17T13:17:34.863Z,20.86
2023-02-17T13:20:51.837Z,20.92
2023-02-17T13:23:30.709Z,21.39
2023-02-17T13:26:30.896Z,21.94
2023-02-17T13:29:21.165Z,22.16
2023-02-17T13:31:54.987Z,21.18
2023-02-17T13:34:29.312Z,21.10
2023-02-17T13:36:58.452Z,21.30
2023-02-17T13:39:36.100Z,20.80
2023-02-17T13:42:06.012Z,20.33
2023-02-17T13:44:41.280Z,21.67
2023-02-17T13:47:18.615Z,21.73
2023-02-17T13:49:54.056Z,21.28
2023-02-17T13:52:26.218Z,21.62
2023-02-17T13:54:55.614Z,21.00
2023-02-17T13:57:25.911Z,20.41
2023-02-17T14:00:07.604Z,21.05
2023-02-17T14:02:39.153Z,20.53
2023-02-17T14:05:18.077Z,21.23
2023-02-17T14:07:48.502Z,21.63
2023-02-17T14:10:20.803Z,21.02
2023-02-17T14:12:51.300Z,21.25
2023-02-17T14:15:24.085Z,21.23
2023-02-17T14:17:52.369Z,22.40
2023-02-17T14:20:35.634Z,22.03
2023-02-17T14:23:06.215Z,22.27
2023-02-17T14:25:37.122Z,21.98
2023-02-17T14:28:06.362Z,22.59
2023-02-17T14:30:38.283Z,22.08
2023-02-17T14:33:09.335Z,22.33
2023-02-17T14:35:39.594Z,23.16
2023-02-17T14:38:21.799Z,23.16
2023-02-17T14:40:50.613Z,22.78
2023-02-17T14:43:18.831Z,23.17
2023-02-17T14:45:48.515Z,23.74
2023-02-17T14:48:16.851Z,24.62
2023-02-17T14:50:46.059Z,25.46
2023-02-17T14:53:26.062Z,25.73
2023-02-17T14:55:59.878Z,26.26
2023-02-17T14:58:29.634Z,26.07
2023-02-17T15:00:59.856Z,26.75
2023-02-17T15:03:30.203Z,28.14
2023-02-17T15:05:58.713Z,29.25
2023-02-17T15:08:33.432Z,29.70
2023-02-17T15:11:02.500Z,30.73
2023-02-17T15:13:32.134Z,30.24
2023-02-17T15:16:02.086Z,31.21
2023-02-17T15:18:30.387Z,30.09
2023-02-17T15:20:58.795Z,30.82
2023-02-17T15:23:27.970Z,31.66
2023-02-17T15:25:57.410Z,31.19
2023-02-17T15:28:25.678Z,33.79
2023-02-17T15:30:56.566Z,34.16
2023-02-17T15:33:26.418Z,33.06
2023-02-17T15:35:56.230Z,33.53
2023-02-17T15:38:27.323Z,32.96
2023-02-17T15:40:58.731Z,33.23
2023-02-17T15:46:12.306Z,36.01
2023-02-17T15:48:42.700Z,37.32
2023-02-17T15:51:15.121Z,37.97
2023-02-17T15:53:43.913Z,37.74
2023-02-17T15:56:20.467Z,37.98
2023-02-17T15:58:50.745Z,37.94
2023-02-17T16:01:27.329Z,38.51
2023-02-17T16:03:58.351Z,38.40
2023-02-17T16:06:27.048Z,38.80
2023-02-17T16:08:58.432Z,38.73
2023-02-17T16:11:27.016Z,47.74
2023-02-17T16:13:55.469Z,38.86
2023-02-17T16:16:28.773Z,39.95
2023-02-17T16:18:58.479Z,38.44
2023-02-17T16:21:27.008Z,38.70
2023-02-17T16:23:59.860Z,38.45
2023-02-17T16:26:34.324Z,37.67
2023-02-17T16:29:03.937Z,37.67
2023-02-17T16:31:35.967Z,38.16
2023-02-17T16:34:05.760Z,38.58
2023-02-17T16:36:36.111Z,38.78
2023-02-17T16:39:12.472Z,38.44
2023-02-17T16:41:41.040Z,38.74
2023-02-17T16:44:12.418Z,40.55
2023-02-17T16:46:41.078Z,39.59
2023-02-17T16:49:20.358Z,39.31
2023-02-17T16:51:49.255Z,37.77
2023-02-17T16:54:18.708Z,38.48
2023-02-17T16:56:48.836Z,37.31
2023-02-17T16:59:18.709Z,38.17
2023-02-17T17:01:47.036Z,38.63
2023-02-17T17:04:16.940Z,39.64
2023-02-17T17:06:47.336Z,39.59
2023-02-17T17:09:18.125Z,39.54
2023-02-17T17:11:46.897Z,40.27
2023-02-17T17:14:15.426Z,40.17
2023-02-17T17:16:49.321Z,40.13
2023-02-17T17:19:19.003Z,40.69
2023-02-17T17:21:48.172Z,41.28
2023-02-17T17:24:16.493Z,41.16
2023-02-17T17:26:50.064Z,42.06
2023-02-17T17:29:19.508Z,43.27
2023-02-17T17:31:48.819Z,44.76
2023-02-17T17:34:18.633Z,44.23
2023-02-17T17:36:48.347Z,44.45
2023-02-17T17:39:18.575Z,44.89
2023-02-17T17:41:47.540Z,45.19
2023-02-17T17:44:15.927Z,43.29
2023-02-17T17:46:44.360Z,43.82
2023-02-17T17:49:14.976Z,43.42
2023-02-17T17:51:44.740Z,44.04
2023-02-17T17:54:13.065Z,43.84
2023-02-17T17:56:43.697Z,43.48
2023-02-17T17:59:13.385Z,44.00
2023-02-17T18:01:43.917Z,45.43
2023-02-17T18:04:13.874Z,45.46
2023-02-17T18:06:47.034Z,44.43
2023-02-17T18:09:31.094Z,44.55
2023-02-17T18:12:03.976Z,47.63
2023-02-17T18:14:33.333Z,47.74
2023-02-17T18:17:02.032Z,47.25
2023-02-17T18:19:31.953Z,47.15
2023-02-17T18:22:01.769Z,46.13
2023-02-17T18:24:30.130Z,46.16
2023-02-17T18:26:58.542Z,46.59
2023-02-17T18:29:27.861Z,48.68
2023-02-17T18:31:57.510Z,47.84
2023-02-17T18:34:26.219Z,47.11
2023-02-17T18:36:54.879Z,48.17
2023-02-17T18:39:26.624Z,48.42
2023-02-17T18:41:55.459Z,47.57
2023-02-17T18:44:23.813Z,48.68
2023-02-17T18:46:52.162Z,49.36
2023-02-17T18:49:20.447Z,48.88
2023-02-17T18:51:48.844Z,47.84
2023-02-17T18:54:17.037Z,47.26
2023-02-17T18:56:46.805Z,47.94
2023-02-17T18:59:15.142Z,49.05
2023-02-17T19:01:43.552Z,48.41
2023-02-17T19:04:13.137Z,48.00
2023-02-17T19:06:41.857Z,48.24
2023-02-17T19:09:10.067Z,49.38
2023-02-17T19:11:38.403Z,49.51
2023-02-17T19:14:08.119Z,50.30
2023-02-17T19:16:36.387Z,49.15
2023-02-17T19:19:05.686Z,51.28
2023-02-17T19:21:36.304Z,51.72
2023-02-17T19:24:04.995Z,52.47
2023-02-17T19:26:34.258Z,50.35
2023-02-17T19:29:02.641Z,52.24
2023-02-17T19:31:32.407Z,50.37
2023-02-17T19:34:00.805Z,51.62
2023-02-17T19:36:29.182Z,51.23
2023-02-17T19:38:58.157Z,52.07
2023-02-17T19:41:26.474Z,51.47
2023-02-17T19:43:54.768Z,50.27
2023-02-17T19:46:25.850Z,48.51
2023-02-17T19:48:55.729Z,48.65
2023-02-17T19:51:24.348Z,49.08
2023-02-17T19:53:52.600Z,49.56
2023-02-17T19:56:22.731Z,49.34
2023-02-17T19:58:51.600Z,49.90
2023-02-17T20:01:22.707Z,49.67
2023-02-17T20:03:51.743Z,50.66
2023-02-17T20:06:22.965Z,49.29
2023-02-17T20:08:55.204Z,51.05
2023-02-17T20:11:23.465Z,51.55
2023-02-17T20:13:51.937Z,50.85
2023-02-17T20:16:20.455Z,52.21
2023-02-17T20:18:50.733Z,51.84
2023-02-17T20:21:25.324Z,51.47
2023-02-17T20:23:54.969Z,51.19
2023-02-17T20:26:25.529Z,51.19
2023-02-17T20:28:55.011Z,50.97
2023-02-17T20:31:23.832Z,50.97
2023-02-17T20:33:52.971Z,50.88
2023-02-17T20:36:22.334Z,50.40
2023-02-17T20:38:52.029Z,51.61
2023-02-17T20:41:22.825Z,52.34
2023-02-17T20:43:52.013Z,52.92
2023-02-17T20:46:24.796Z,52.24
2023-02-17T20:48:54.204Z,51.54
2023-02-17T20:51:22.934Z,52.31
2023-02-17T20:53:52.829Z,55.37
2023-02-17T20:56:23.228Z,54.85
2023-02-17T20:58:52.328Z,53.48
2023-02-17T21:01:20.980Z,52.99
2023-02-17T21:03:49.424Z,52.34
2023-02-17T21:06:22.361Z,52.14
2023-02-17T21:08:54.879Z,53.24
2023-02-17T21:11:23.791Z,54.34
2023-02-17T21:13:52.217Z,53.48
2023-02-17T21:16:22.493Z,52.54
2023-02-17T21:18:50.877Z,52.76
2023-02-17T21:21:19.513Z,52.71
2023-02-17T21:23:48.152Z,52.64
2023-02-17T21:26:18.514Z,52.98
2023-02-17T21:28:47.935Z,53.29
2023-02-17T21:31:17.337Z,53.50
2023-02-17T21:33:46.307Z,53.39
2023-02-17T21:36:16.688Z,53.53
2023-02-17T21:38:45.350Z,54.09
2023-02-17T21:41:17.054Z,55.52
2023-02-17T21:44:03.977Z,56.70
2023-02-17T21:46:32.654Z,56.09
2023-02-17T21:49:02.367Z,56.66
2023-02-17T21:51:30.999Z,55.49
2023-02-17T21:54:02.397Z,55.33
2023-02-17T21:56:30.656Z,56.42
2023-02-17T21:59:00.426Z,55.74
2023-02-17T22:01:29.204Z,55.67
2023-02-17T22:03:58.563Z,57.12
2023-02-17T22:06:28.895Z,56.62
2023-02-17T22:08:58.867Z,56.47
2023-02-17T22:11:29.964Z,57.39
2023-02-17T22:14:01.864Z,56.95
2023-02-17T22:16:31.721Z,57.61
2023-02-17T22:19:00.017Z,56.18
2023-02-17T22:21:28.744Z,56.11
2023-02-17T22:23:58.698Z,56.06
2023-02-17T22:26:28.103Z,55.65
2023-02-17T22:28:56.711Z,59.01
2023-02-17T22:31:28.892Z,59.36
2023-02-17T22:33:58.185Z,60.03
2023-02-17T22:36:27.589Z,60.92
2023-02-17T22:38:56.266Z,60.54
2023-02-17T22:41:26.455Z,59.75
2023-02-17T22:43:55.511Z,58.12
2023-02-17T22:46:27.396Z,59.75
2023-02-17T22:48:58.786Z,59.01
2023-02-17T22:51:29.836Z,57.91
2023-02-17T22:53:58.785Z,57.25
2023-02-17T22:56:27.195Z,56.93
2023-02-17T22:58:58.038Z,56.86
2023-02-17T23:01:29.056Z,56.76
2023-02-17T23:03:57.334Z,57.37
2023-02-17T23:06:27.621Z,57.55
2023-02-17T23:08:56.631Z,57.71
2023-02-17T23:11:45.508Z,57.46
2023-02-17T23:14:14.967Z,58.12
2023-02-17T23:16:44.997Z,60.08
2023-02-17T23:19:15.217Z,60.12
2023-02-17T23:24:31.138Z,58.56
2023-02-17T23:27:01.100Z,57.93
2023-02-17T23:29:30.858Z,58.61
2023-02-17T23:32:00.950Z,58.53
2023-02-17T23:34:29.744Z,58.87
2023-02-17T23:36:58.617Z,59.00
2023-02-17T23:39:26.965Z,58.55
2023-02-17T23:41:55.382Z,59.06
2023-02-17T23:44:23.653Z,58.47
2023-02-17T23:46:51.927Z,58.16
2023-02-17T23:49:21.741Z,58.45
2023-02-17T23:51:50.014Z,58.81
2023-02-17T23:54:18.312Z,58.83
2023-02-17T23:56:46.627Z,59.00
2023-02-17T23:59:15.200Z,60.22
